createdAt,value
2023-05-27T00:01:32.608Z,17.22
2023-05-27T00:04:35.938Z,17.29
2023-05-27T00:07:38.813Z,17.17
2023-05-27T00:10:41.970Z,17.17
2023-05-27T00:13:45.068Z,17.13
2023-05-27T00:16:48.237Z,16.92
2023-05-27T00:19:52.922Z,16.87
2023-05-27T00:22:57.823Z,16.70
2023-05-27T00:26:00.580Z,16.66
2023-05-27T00:29:03.646Z,16.58
2023-05-27T00:32:06.712Z,16.60
2023-05-27T00:35:10.668Z,16.61
2023-05-27T00:38:13.524Z,16.67
2023-05-27T00:41:16.719Z,16.63
2023-05-27T00:44:19.797Z,16.57
2023-05-27T00:47:23.511Z,16.49
2023-05-27T00:50:27.521Z,16.33
2023-05-27T00:53:38.804Z,16.24
2023-05-27T00:56:42.583Z,16.43
2023-05-27T00:59:46.697Z,16.22
2023-05-27T01:02:50.380Z,16.34
2023-05-27T01:06:01.758Z,16.24
2023-05-27T01:09:28.996Z,16.00
2023-05-27T01:13:01.500Z,15.94
2023-05-27T01:16:14.832Z,15.92
2023-05-27T01:19:48.817Z,15.97
2023-05-27T01:22:53.798Z,15.96
2023-05-27T01:25:56.945Z,15.91
2023-05-27T01:29:00.068Z,15.97
2023-05-27T01:32:07.453Z,16.03
2023-05-27T01:35:19.354Z,16.07
2023-05-27T01:38:26.323Z,15.91
2023-05-27T01:41:29.797Z,15.81
2023-05-27T01:44:34.373Z,15.92
2023-05-27T01:47:38.536Z,15.95
2023-05-27T01:50:41.613Z,15.89
2023-05-27T01:53:44.775Z,15.49
2023-05-27T01:56:47.898Z,15.41
2023-05-27T01:59:50.702Z,15.46
2023-05-27T02:02:54.182Z,15.41
2023-05-27T02:05:57.655Z,15.71
2023-05-27T02:09:00.581Z,15.82
2023-05-27T02:12:04.134Z,15.87
2023-05-27T02:15:08.788Z,15.83
2023-05-27T02:18:14.274Z,15.83
2023-05-27T02:21:17.679Z,15.79
2023-05-27T02:24:20.773Z,15.92
2023-05-27T02:27:25.134Z,16.04
2023-05-27T02:30:28.459Z,16.06
2023-05-27T02:33:32.261Z,16.04
2023-05-27T02:36:36.103Z,16.11
2023-05-27T02:39:40.161Z,16.08
2023-05-27T02:42:43.404Z,16.00
2023-05-27T02:45:47.168Z,15.75
2023-05-27T02:48:50.534Z,15.64
2023-05-27T02:51:54.229Z,15.77
2023-05-27T02:54:57.829Z,15.80
2023-05-27T02:58:00.781Z,15.91
2023-05-27T03:01:04.059Z,15.96
2023-05-27T03:04:07.023Z,15.82
2023-05-27T03:07:11.032Z,15.60
2023-05-27T03:10:13.802Z,15.43
2023-05-27T03:13:16.902Z,15.34
2023-05-27T03:16:20.994Z,15.26
2023-05-27T03:19:24.240Z,15.17
2023-05-27T03:22:27.071Z,15.12
2023-05-27T03:25:30.326Z,15.12
2023-05-27T03:28:34.407Z,15.01
2023-05-27T03:31:37.937Z,14.81
2023-05-27T03:34:40.965Z,14.81
2023-05-27T03:37:44.762Z,14.84
2023-05-27T03:40:47.528Z,14.87
2023-05-27T03:43:50.897Z,14.79
2023-05-27T03:46:54.182Z,14.80
2023-05-27T03:49:57.356Z,14.77
2023-05-27T03:53:00.023Z,14.80
2023-05-27T03:56:04.056Z,14.81
2023-05-27T03:59:10.002Z,14.85
2023-05-27T04:02:13.678Z,14.89
2023-05-27T04:05:18.151Z,14.96
2023-05-27T04:08:23.659Z,15.01
2023-05-27T04:11:28.787Z,15.02
2023-05-27T04:14:32.216Z,15.09
2023-05-27T04:17:36.772Z,15.12
2023-05-27T04:20:41.778Z,15.15
2023-05-27T04:23:45.587Z,15.17
2023-05-27T04:26:49.035Z,15.32
2023-05-27T04:29:52.450Z,15.50
2023-05-27T04:32:56.011Z,15.64
2023-05-27T04:35:59.168Z,15.67
2023-05-27T04:39:03.542Z,15.88
2023-05-27T04:42:07.188Z,16.03
2023-05-27T04:45:15.628Z,16.15
2023-05-27T04:48:21.225Z,16.28
2023-05-27T04:51:24.213Z,16.35
2023-05-27T04:54:28.234Z,16.29
2023-05-27T04:57:31.238Z,16.26
2023-05-27T05:00:50.890Z,16.41
2023-05-27T05:04:04.916Z,16.51
2023-05-27T05:07:08.746Z,16.42
2023-05-27T05:10:12.759Z,16.42
2023-05-27T05:13:17.444Z,16.48
2023-05-27T05:16:20.240Z,16.44
2023-05-27T05:19:23.388Z,16.46
2023-05-27T05:22:27.483Z,16.45
2023-05-27T05:25:31.693Z,16.38
2023-05-27T05:28:35.674Z,16.37
2023-05-27T05:31:39.128Z,16.59
2023-05-27T05:34:43.337Z,16.70
2023-05-27T05:37:47.140Z,16.76
2023-05-27T05:40:53.663Z,16.87
2023-05-27T05:43:58.383Z,16.94
2023-05-27T05:47:01.663Z,17.06
2023-05-27T05:50:05.222Z,17.23
2023-05-27T05:53:08.679Z,17.17
2023-05-27T05:56:12.002Z,17.43
2023-05-27T05:59:14.911Z,17.46
2023-05-27T06:02:18.184Z,17.58
2023-05-27T06:05:23.457Z,17.73
2023-05-27T06:08:26.398Z,17.80
2023-05-27T06:11:31.734Z,17.92
2023-05-27T06:14:35.001Z,17.94
2023-05-27T06:17:38.449Z,17.94
2023-05-27T06:20:41.517Z,18.34
2023-05-27T06:23:44.986Z,18.82
2023-05-27T06:26:51.039Z,18.84
2023-05-27T06:29:54.182Z,18.72
2023-05-27T06:32:57.734Z,18.93
2023-05-27T06:36:01.457Z,19.35
2023-05-27T06:39:05.154Z,20.01
2023-05-27T06:42:09.323Z,20.27
2023-05-27T06:45:13.604Z,20.65
2023-05-27T06:48:17.210Z,21.10
2023-05-27T06:51:20.034Z,21.33
2023-05-27T06:54:23.522Z,21.04
2023-05-27T06:57:27.090Z,20.83
2023-05-27T07:00:31.277Z,20.95
2023-05-27T07:03:35.627Z,20.67
2023-05-27T07:06:39.451Z,20.55
2023-05-27T07:09:42.561Z,20.42
2023-05-27T07:12:46.020Z,20.37
2023-05-27T07:15:52.481Z,20.38
2023-05-27T07:18:55.737Z,20.59
2023-05-27T07:21:58.771Z,20.62
2023-05-27T07:25:02.534Z,20.48
2023-05-27T07:28:05.949Z,20.40
2023-05-27T07:31:10.150Z,20.68
2023-05-27T07:34:13.555Z,20.73
2023-05-27T07:37:16.728Z,20.46
2023-05-27T07:40:19.530Z,20.65
2023-05-27T07:43:22.820Z,20.96
2023-05-27T07:46:32.075Z,20.75
2023-05-27T07:49:35.307Z,20.68
2023-05-27T07:52:38.564Z,21.02
2023-05-27T07:55:46.130Z,21.13
2023-05-27T07:58:49.324Z,21.39
2023-05-27T08:01:52.890Z,22.00
2023-05-27T08:04:56.883Z,21.79
2023-05-27T08:08:00.410Z,21.77
2023-05-27T08:11:04.454Z,21.66
2023-05-27T08:14:14.258Z,21.79
2023-05-27T08:17:18.007Z,21.85
2023-05-27T08:20:21.530Z,22.15
2023-05-27T08:23:26.538Z,22.27
2023-05-27T08:26:29.775Z,23.02
2023-05-27T08:29:34.883Z,23.85
2023-05-27T08:32:37.793Z,23.96
2023-05-27T08:35:40.976Z,23.93
2023-05-27T08:38:44.031Z,24.52
2023-05-27T08:41:47.657Z,25.58
2023-05-27T08:44:51.523Z,25.53
2023-05-27T08:47:55.224Z,26.05
2023-05-27T08:50:59.859Z,26.20
2023-05-27T08:54:03.214Z,26.32
2023-05-27T08:57:08.901Z,26.67
2023-05-27T09:00:13.400Z,26.48
2023-05-27T09:03:17.927Z,25.84
2023-05-27T09:06:21.879Z,26.16
2023-05-27T09:09:24.648Z,26.89
2023-05-27T09:12:28.238Z,26.29
2023-05-27T09:15:33.379Z,26.48
2023-05-27T09:18:37.373Z,27.09
2023-05-27T09:21:40.201Z,27.37
2023-05-27T09:24:43.658Z,27.79
2023-05-27T09:27:46.864Z,27.46
2023-05-27T09:31:10.026Z,27.39
2023-05-27T09:34:16.626Z,28.11
2023-05-27T09:37:22.208Z,28.00
2023-05-27T09:40:27.015Z,27.56
2023-05-27T09:43:31.166Z,27.44
2023-05-27T09:46:34.868Z,26.73
2023-05-27T09:49:39.408Z,26.79
2023-05-27T09:52:44.484Z,26.43
2023-05-27T09:55:54.838Z,26.80
2023-05-27T09:58:59.253Z,26.75
2023-05-27T10:02:05.543Z,26.93
2023-05-27T10:05:09.801Z,27.60
2023-05-27T10:08:25.196Z,27.79
2023-05-27T10:11:33.498Z,28.68
2023-05-27T10:14:36.762Z,29.13
2023-05-27T10:17:49.698Z,29.85
2023-05-27T10:20:53.068Z,29.53
2023-05-27T10:24:03.157Z,29.81
2023-05-27T10:27:07.239Z,29.58
2023-05-27T10:30:10.532Z,29.91
2023-05-27T10:33:14.377Z,29.26
2023-05-27T10:36:23.043Z,30.04
2023-05-27T10:39:27.517Z,29.72
2023-05-27T10:42:32.152Z,29.27
2023-05-27T10:45:35.657Z,29.44
2023-05-27T10:48:41.170Z,29.59
2023-05-27T10:51:45.446Z,29.50
2023-05-27T10:54:49.813Z,29.86
2023-05-27T10:57:52.948Z,29.71
2023-05-27T11:00:59.958Z,29.75
2023-05-27T11:04:02.761Z,29.85
2023-05-27T11:07:06.121Z,29.33
2023-05-27T11:10:10.167Z,29.37
2023-05-27T11:13:13.354Z,29.72
2023-05-27T11:16:17.446Z,29.52
2023-05-27T11:19:22.318Z,30.01
2023-05-27T11:22:25.098Z,29.89
2023-05-27T11:25:28.350Z,29.91
2023-05-27T11:28:31.493Z,29.58
2023-05-27T11:31:34.653Z,30.16
2023-05-27T11:34:38.136Z,30.29
2023-05-27T11:37:41.396Z,30.10
2023-05-27T11:40:44.090Z,29.93
2023-05-27T11:43:51.733Z,29.11
2023-05-27T11:47:03.503Z,29.96
2023-05-27T11:50:07.690Z,29.52
2023-05-27T11:53:10.437Z,30.26
2023-05-27T11:56:14.524Z,30.18
2023-05-27T11:59:17.583Z,30.15
2023-05-27T12:02:22.865Z,30.50
2023-05-27T12:08:35.986Z,30.19
2023-05-27T12:11:39.870Z,29.77
2023-05-27T12:14:42.900Z,29.54
2023-05-27T12:17:46.128Z,29.70
2023-05-27T12:20:49.015Z,30.00
2023-05-27T12:23:52.539Z,28.95
2023-05-27T12:26:55.794Z,29.61
2023-05-27T12:29:58.845Z,29.32
2023-05-27T12:33:02.616Z,29.87
2023-05-27T12:36:08.912Z,29.82
2023-05-27T12:39:11.885Z,29.93
2023-05-27T12:42:16.749Z,30.02
2023-05-27T12:45:23.294Z,29.31
2023-05-27T12:48:26.589Z,29.59
2023-05-27T12:51:29.787Z,28.68
2023-05-27T12:54:33.140Z,28.62
2023-05-27T12:57:35.959Z,28.59
2023-05-27T13:00:39.266Z,28.51
2023-05-27T13:03:42.492Z,27.73
2023-05-27T13:06:45.667Z,28.68
2023-05-27T13:09:49.449Z,29.18
2023-05-27T13:12:53.339Z,29.25
2023-05-27T13:15:56.163Z,28.92
2023-05-27T13:18:59.275Z,29.46
2023-05-27T13:22:02.758Z,29.36
2023-05-27T13:25:06.991Z,29.21
2023-05-27T13:28:09.847Z,28.79
2023-05-27T13:31:12.921Z,29.06
2023-05-27T13:34:19.021Z,28.78
2023-05-27T13:37:22.314Z,28.86
2023-05-27T13:40:25.095Z,28.51
2023-05-27T13:43:28.545Z,28.28
2023-05-27T13:46:31.382Z,28.35
2023-05-27T13:49:34.695Z,27.92
2023-05-27T13:52:37.791Z,28.10
2023-05-27T13:55:40.905Z,28.22
2023-05-27T13:58:43.692Z,28.37
2023-05-27T14:01:47.028Z,27.92
2023-05-27T14:04:50.443Z,28.16
2023-05-27T14:07:53.561Z,27.81
2023-05-27T14:10:56.625Z,27.86
2023-05-27T14:14:00.426Z,27.19
2023-05-27T14:17:03.668Z,27.07
2023-05-27T14:20:12.296Z,27.00
2023-05-27T14:23:17.653Z,26.67
2023-05-27T14:26:20.425Z,26.66
2023-05-27T14:29:23.536Z,26.53
2023-05-27T14:32:26.309Z,26.57
2023-05-27T14:35:29.891Z,26.24
2023-05-27T14:38:32.689Z,26.04
2023-05-27T14:41:36.088Z,26.14
2023-05-27T14:44:39.645Z,26.10
2023-05-27T14:47:42.733Z,25.96
2023-05-27T14:50:46.318Z,25.79
2023-05-27T14:53:49.620Z,25.80
2023-05-27T14:56:52.621Z,25.74
2023-05-27T14:59:55.718Z,25.55
2023-05-27T15:02:58.524Z,25.44
2023-05-27T15:06:01.841Z,25.33
2023-05-27T15:09:04.698Z,24.99
2023-05-27T15:12:08.100Z,24.86
2023-05-27T15:15:16.234Z,24.98
2023-05-27T15:18:19.358Z,24.90
2023-05-27T15:21:22.676Z,24.78
2023-05-27T15:24:25.766Z,24.62
2023-05-27T15:27:28.540Z,24.52
2023-05-27T15:30:32.783Z,24.50
2023-05-27T15:33:35.662Z,24.44
2023-05-27T15:36:39.090Z,24.35
2023-05-27T15:39:41.985Z,24.06
2023-05-27T15:42:45.422Z,23.87
2023-05-27T15:46:02.880Z,23.79
2023-05-27T15:49:06.966Z,23.95
2023-05-27T15:52:12.219Z,23.99
2023-05-27T15:55:15.556Z,24.07
2023-05-27T15:58:18.482Z,24.02
2023-05-27T16:01:21.705Z,23.94
2023-05-27T16:04:24.910Z,23.90
2023-05-27T16:07:27.727Z,23.87
2023-05-27T16:10:31.168Z,23.76
2023-05-27T16:13:33.985Z,23.75
2023-05-27T16:16:37.318Z,23.78
2023-05-27T16:19:40.085Z,23.61
2023-05-27T16:22:43.333Z,23.63
2023-05-27T16:25:47.432Z,23.60
2023-05-27T16:28:50.888Z,23.62
2023-05-27T16:31:53.862Z,23.43
2023-05-27T16:34:57.157Z,23.26
2023-05-27T16:37:59.883Z,23.35
2023-05-27T16:41:03.052Z,23.23
2023-05-27T16:44:06.737Z,23.21
2023-05-27T16:47:10.331Z,23.21
2023-05-27T16:50:13.149Z,23.09
2023-05-27T16:53:16.480Z,23.11
2023-05-27T16:56:19.398Z,23.05
2023-05-27T16:59:22.531Z,22.97
2023-05-27T17:02:25.664Z,22.96
2023-05-27T17:05:28.953Z,22.92
2023-05-27T17:08:31.889Z,22.83
2023-05-27T17:11:36.685Z,22.76
2023-05-27T17:14:43.579Z,22.64
2023-05-27T17:17:49.614Z,22.53
2023-05-27T17:20:55.096Z,22.50
2023-05-27T17:23:59.467Z,22.43
2023-05-27T17:27:02.301Z,22.32
2023-05-27T17:30:06.020Z,22.20
2023-05-27T17:33:08.850Z,22.17
2023-05-27T17:36:12.300Z,22.06
2023-05-27T17:39:15.092Z,21.90
2023-05-27T17:42:18.253Z,21.81
2023-05-27T17:45:20.913Z,21.74
2023-05-27T17:48:24.113Z,21.69
2023-05-27T17:51:28.125Z,21.49
2023-05-27T17:54:31.636Z,21.39
2023-05-27T17:57:34.421Z,21.22
2023-05-27T18:00:38.127Z,21.11
2023-05-27T18:07:01.646Z,20.91
2023-05-27T18:10:05.924Z,20.77
2023-05-27T18:13:08.715Z,20.71
2023-05-27T18:16:12.951Z,20.56
2023-05-27T18:19:16.489Z,20.42
2023-05-27T18:22:20.240Z,20.30
2023-05-27T18:25:23.524Z,20.22
2023-05-27T18:28:26.527Z,20.04
2023-05-27T18:31:29.228Z,19.89
2023-05-27T18:34:32.351Z,19.80
2023-05-27T18:37:35.631Z,19.67
2023-05-27T18:40:40.541Z,19.64
2023-05-27T18:43:43.305Z,19.56
2023-05-27T18:46:46.433Z,19.50
2023-05-27T18:49:49.449Z,19.44
2023-05-27T18:52:52.664Z,19.44
2023-05-27T18:55:55.461Z,19.34
2023-05-27T18:58:59.063Z,19.39
2023-05-27T19:02:02.305Z,19.33
2023-05-27T19:05:05.885Z,19.39
2023-05-27T19:08:08.767Z,19.44
2023-05-27T19:11:12.811Z,19.25
2023-05-27T19:14:16.152Z,19.23
2023-05-27T19:17:19.134Z,19.37
2023-05-27T19:20:22.585Z,19.35
2023-05-27T19:23:25.859Z,19.10
2023-05-27T19:26:28.702Z,19.10
2023-05-27T19:29:31.764Z,19.16
2023-05-27T19:32:34.528Z,19.06
2023-05-27T19:35:37.961Z,19.06
2023-05-27T19:38:41.113Z,19.02
2023-05-27T19:41:44.177Z,18.87
2023-05-27T19:44:48.226Z,18.86
2023-05-27T19:47:52.471Z,18.86
2023-05-27T19:50:55.690Z,18.81
2023-05-27T19:53:58.938Z,18.66
2023-05-27T19:57:02.644Z,18.44
2023-05-27T20:00:08.815Z,18.65
2023-05-27T20:03:11.861Z,18.49
2023-05-27T20:06:15.210Z,18.33
2023-05-27T20:09:18.325Z,18.20
2023-05-27T20:12:56.563Z,18.03
2023-05-27T20:15:59.665Z,18.00
2023-05-27T20:19:02.497Z,18.07
2023-05-27T20:22:05.473Z,17.87
2023-05-27T20:25:08.821Z,17.93
2023-05-27T20:28:13.494Z,17.92
2023-05-27T20:31:16.616Z,17.86
2023-05-27T20:34:19.714Z,17.93
2023-05-27T20:37:22.517Z,17.87
2023-05-27T20:40:26.637Z,17.72
2023-05-27T20:43:31.973Z,17.56
2023-05-27T20:46:35.208Z,17.68
2023-05-27T20:49:37.953Z,17.53
2023-05-27T20:52:41.524Z,17.71
2023-05-27T20:55:44.533Z,17.68
2023-05-27T20:58:47.492Z,17.61
2023-05-27T21:01:50.802Z,17.53
2023-05-27T21:04:53.992Z,17.39
2023-05-27T21:07:57.045Z,17.35
2023-05-27T21:11:00.145Z,17.27
2023-05-27T21:14:03.302Z,17.25
2023-05-27T21:17:06.565Z,17.22
2023-05-27T21:20:09.880Z,16.92
2023-05-27T21:23:13.184Z,16.73
2023-05-27T21:26:16.684Z,16.86
2023-05-27T21:29:19.753Z,16.70
2023-05-27T21:32:24.590Z,15.95
2023-05-27T21:35:27.681Z,15.55
2023-05-27T21:38:34.573Z,15.88
2023-05-27T21:41:38.067Z,16.06
2023-05-27T21:44:41.262Z,16.13
2023-05-27T21:47:44.484Z,16.27
2023-05-27T21:50:47.404Z,16.24
2023-05-27T21:56:54.523Z,16.38
2023-05-27T21:59:58.560Z,16.40
2023-05-27T22:03:02.160Z,16.22
2023-05-27T22:06:06.240Z,16.22
2023-05-27T22:09:09.835Z,16.08
2023-05-27T22:12:14.474Z,16.08
2023-05-27T22:15:18.100Z,16.11
2023-05-27T22:18:21.173Z,15.94
2023-05-27T22:21:29.362Z,16.13
2023-05-27T22:24:34.372Z,15.82
2023-05-27T22:27:38.000Z,15.91
2023-05-27T22:30:41.468Z,15.70
2023-05-27T22:33:44.394Z,15.74
2023-05-27T22:36:48.007Z,15.95
2023-05-27T22:39:51.813Z,15.87
2023-05-27T22:42:55.764Z,15.91
2023-05-27T22:45:59.510Z,15.93
2023-05-27T22:49:03.161Z,16.00
2023-05-27T22:52:06.020Z,16.03
2023-05-27T22:55:09.615Z,16.11
2023-05-27T22:58:12.261Z,16.09
2023-05-27T23:01:15.570Z,16.03
2023-05-27T23:04:18.432Z,16.01
2023-05-27T23:07:21.521Z,16.09
2023-05-27T23:10:27.736Z,15.99
2023-05-27T23:13:30.884Z,15.96
2023-05-27T23:16:33.749Z,15.96
2023-05-27T23:19:36.869Z,15.85
2023-05-27T23:22:39.685Z,15.39
2023-05-27T23:25:42.872Z,15.53
2023-05-27T23:28:45.835Z,15.57
2023-05-27T23:31:49.160Z,15.38
2023-05-27T23:34:52.131Z,15.33
2023-05-27T23:37:55.307Z,15.29
2023-05-27T23:40:58.090Z,15.14
2023-05-27T23:44:01.269Z,15.41
2023-05-27T23:47:04.232Z,15.30
2023-05-27T23:50:09.126Z,15.13
2023-05-27T23:53:11.898Z,15.02
2023-05-27T23:56:15.256Z,15.05
2023-05-27T23:59:17.969Z,15.00
